Tiempo atmosférico en la estación meteorológica de Benahavis, Málaga (399 m.)



Fecha
DESCASC
Temp. máxima en grados centígrados (hora)
DESCASC
Temp. mínima en grados centígrados (hora)
DESCASC
Temp. media en grados centígrados
DESCASC
Racha de viento máxima en m/sg (hora)
DESCASC
Velocidad máxima media en intervalos de 10 minutos(hora)
DESCASC
Precipitaciones diarias en mm
DESCASC
Precipitaciones de 00:00 a 06:00 en mm
DESCASC
Precipitaciones de 06:00 a 12:00 en mm
DESCASC
Precipitaciones de 12:00 a 18:00 en mm
DESCASC
Precipitaciones de 18:00 a 24:00 en mm
DESCASC
06-07-2020 33.5 (16:00) 20 (06:10) 26.8 5 (14:20) 2.78 (14:20) 0 0 0 0 0
05-07-2020 28.1 (17:10) 19.1 (05:30) 23.6 7.5 (13:00) 3.61 (15:30) 0 0 0 0 0
04-07-2020 25.9 (15:10) 19.5 (07:10) 22.7 8.33 (13:40) 3.33 (15:20) 0 0 0 0 0
03-07-2020 32.1 (13:10) 22.3 (07:40) 27.2 7.5 (13:30) 3.61 (13:20) 0 0 0 0 0
02-07-2020 38.3 (17:10) 24.8 (00:00) 31.5 8.61 (17:30) 4.44 (18:10) 0 0 0 0 0
01-07-2020 36.2 (17:10) 20.4 (00:00) 28.3 5.28 (18:00) 3.06 (17:00) 0 0 0 0 0
30-06-2020 29.7 (15:30) 20.2 (00:00) 25 5.56 (01:40) 3.33 (15:30) 0 0 0 0 0
29-06-2020 30.4 (17:10) 20.1 (00:00) 25.3 6.11 (16:10) 2.78 (14:20) 0 0 0 0 0
28-06-2020 32 (15:40) 22.1 (00:00) 27.1 5.56 (14:00) 3.06 (16:00) 0 0 0 0 0
27-06-2020 33 (15:30) 20.8 (00:00) 26.9 8.61 (15:30) 4.44 (15:40) 0 0 0 0 0
26-06-2020 31.2 (17:00) 18.1 (00:00) 24.7 6.39 (15:40) 2.78 (17:10) 0 0 0 0 0
25-06-2020 -- (--) -- (--) -- -- (--) -- (--) -- 0 -- 0 0
24-06-2020 27.8 (16:00) 18.9 (00:00) 23.3 6.39 (17:50) 3.33 (17:40) 0 0 0 0 0
23-06-2020 29.4 (13:50) 19.2 (00:00) 24.3 6.94 (14:30) 3.89 (17:00) 0 0 0 0 0
22-06-2020 32.2 (16:10) 20.3 (00:00) 26.3 7.5 (16:40) 2.78 (16:40) 0 0 0 0 0
21-06-2020 32.8 (16:10) 19.7 (00:00) 26.3 5.56 (14:10) 2.78 (14:40) 0 0 0 0 0
20-06-2020 28.1 (17:00) 17 (00:00) 22.6 5.56 (11:40) 3.33 (00:10) 0 0 0 0 0
19-06-2020 28.5 (16:20) 15.9 (00:00) 22.2 6.39 (15:20) 3.89 (23:59) 0 0 0 0 0
18-06-2020 26.5 (15:20) 19 (00:00) 22.8 6.11 (15:50) 3.89 (19:20) 0 0 0 0 0
17-06-2020 29.2 (15:50) 18.5 (00:00) 23.9 8.06 (00:30) 3.33 (19:50) 0 0 0 0 0
16-06-2020 30.7 (16:40) 18.5 (00:00) 24.6 11.67 (16:30) 5.56 (13:50) 0 0 0 0 0
15-06-2020 30.6 (16:50) 17 (00:00) 23.8 6.39 (15:20) 3.61 (15:20) 0 0 0 0 0
14-06-2020 -- (--) -- (--) -- -- (--) -- (--) -- 0 -- 0 0
13-06-2020 24.6 (16:20) 12.7 (00:00) 18.7 10 (01:50) 4.44 (01:50) 0 0 0 0 0
12-06-2020 24.8 (15:20) 15.6 (00:00) 20.2 15 (15:30) 6.67 (19:40) 0 0 0 0 0
11-06-2020 26.4 (16:20) 14.4 (00:00) 20.4 13.89 (18:20) 8.33 (18:20) 0 0 0 0 0
10-06-2020 26.9 (16:50) 16.1 (00:00) 21.5 7.5 (17:40) 3.89 (17:40) 0 0 0 0 0

Gráficas

Temp. máximas Temp. mínimas Temp. medias Precipitaciones Rachas de viento máximas Velocidades máximas media en intervalos de 10 minutos

Datos horarios

Fecha y hora oficial Temperatura (ºC) Velocidad del viento (km/h) Dirección del viento Racha (km/h) Dirección de racha Precipitación (mm) Presión (hPa) Tendencia (hPa) Humedad (%)
2020-07-09 23:00:00 22.9 2 Nordeste 8 Nordeste 0 -- -- 53
2020-07-09 22:00:00 23.9 4 Nordeste 9 Nordeste 0 -- -- 50
2020-07-09 21:00:00 25.6 9 Nordeste 12 Nordeste 0 -- -- 50
2020-07-09 20:00:00 27.3 8 Sudoeste 14 Sudoeste 0 -- -- 44
2020-07-09 19:00:00 29.1 6 Sudoeste 15 Sudoeste 0 -- -- 44
2020-07-09 18:00:00 29.5 7 Sudoeste 19 Sudoeste 0 -- -- 46
2020-07-09 17:00:00 30.7 9 Sudoeste 21 Sudoeste 0 -- -- 44
2020-07-09 16:00:00 29.9 6 Sur 20 Sudoeste 0 -- -- 44
2020-07-09 15:00:00 29.3 8 Sur 26 Sudoeste 0 -- -- 47
2020-07-09 14:00:00 28.6 9 Sur 20 Sur 0 -- -- 50
2020-07-09 13:00:00 28.8 6 Sur 22 Sudoeste 0 -- -- 50
2020-07-09 12:00:00 27.5 5 Sur 18 Nordeste 0 -- -- 52
2020-07-09 11:00:00 26.2 9 Nordeste 18 Nordeste 0 -- -- 52
2020-07-09 10:00:00 25.2 4 Norte 10 Nordeste 0 -- -- 54
2020-07-09 09:00:00 22.6 2 Sudoeste 5 Sudoeste 0 -- -- 55
2020-07-09 08:00:00 20.4 0 Calma 5 Nordeste 0 -- -- 61
2020-07-09 07:00:00 20.6 3 Nordeste 5 Nordeste 0 -- -- 59
2020-07-09 06:00:00 21 2 Norte 11 Nordeste 0 -- -- 54
2020-07-09 05:00:00 21.2 0 Calma 7 Norte 0 -- -- 51
2020-07-09 04:00:00 22.2 4 Este 15 Nordeste 0 -- -- 47
2020-07-09 03:00:00 22.5 0 Calma 19 Nordeste 0 -- -- 45
2020-07-09 02:00:00 23.2 2 Sudeste 19 Nordeste 0 -- -- 45
2020-07-09 01:00:00 23 6 Nordeste 16 Nordeste 0 -- -- 47
2020-07-09 00:00:00 22.2 0 Calma 13 Nordeste 0 -- -- 60
2020-07-08 23:00:00 22.7 6 Nordeste 12 Nordeste 0 -- -- 57
2020-07-08 22:00:00 24 5 Este 8 Nordeste 0 -- -- 50
2020-07-08 21:00:00 26.2 3 Nordeste 12 Sudoeste 0 -- -- 44
2020-07-08 20:00:00 27.8 6 Sur 15 Sur 0 -- -- 39
2020-07-08 19:00:00 28.8 8 Sudoeste 17 Sudoeste 0 -- -- 35
2020-07-08 18:00:00 29.1 8 Sudoeste 15 Sur 0 -- -- 37
2020-07-08 17:00:00 29.3 6 Nordeste 19 Nordeste 0 -- -- 34
2020-07-08 16:00:00 29 10 Nordeste 18 Nordeste 0 -- -- 32
2020-07-08 15:00:00 29.7 4 Nordeste 22 Este 0 -- -- 34
2020-07-08 14:00:00 29.9 6 Sudeste 19 Nordeste 0 -- -- 34
2020-07-08 13:00:00 29.7 6 Nordeste 17 Nordeste 0 -- -- 37
2020-07-08 12:00:00 29.4 7 Nordeste 17 Norte 0 -- -- 31
2020-07-08 11:00:00 28.1 5 Sudoeste 13 Sudoeste 0 -- -- 38
2020-07-08 10:00:00 26.5 5 Sudoeste 8 Sudoeste 0 -- -- 38
2020-07-08 09:00:00 24.1 2 Oeste 6 Sur 0 -- -- 44
2020-07-08 08:00:00 22.7 3 Este 9 Sudoeste 0 -- -- 39
2020-07-08 07:00:00 23.4 5 Nordeste 13 Sur 0 -- -- 42
2020-07-08 06:00:00 24.5 3 Este 15 Sudeste 0 -- -- 44
2020-07-08 05:00:00 23.6 9 Este 15 Sudoeste 0 -- -- 44
2020-07-08 04:00:00 24.9 6 Sur 18 Sur 0 -- -- 45
2020-07-08 03:00:00 23.7 0 Calma 9 Nordeste 0 -- -- 58
2020-07-08 02:00:00 24.2 4 Noroeste 21 Nordeste 0 -- -- 57
2020-07-08 01:00:00 24.4 0 Calma 12 Este 0 -- -- 57
2020-07-08 00:00:00 25.1 0 Calma 5 Nordeste 0 -- -- 56
2020-07-07 23:00:00 26.6 0 Calma 10 Nordeste 0 -- -- 49
2020-07-07 22:00:00 26.3 3 Noroeste 9 Nordeste 0 -- -- 52
2020-07-07 21:00:00 28.8 3 Sudoeste 7 Sudoeste 0 -- -- 46
2020-07-07 20:00:00 30.9 4 Sudoeste 11 Sudoeste 0 -- -- 42
2020-07-07 19:00:00 32.5 6 Oeste 12 Oeste 0 -- -- 36
2020-07-07 18:00:00 33.5 7 Sudoeste 16 Sur 0 -- -- 33
2020-07-07 17:00:00 34.6 8 Sudoeste 16 Sudoeste 0 -- -- 32
2020-07-07 16:00:00 34.3 8 Sudoeste 15 Sudoeste 0 -- -- 32
2020-07-07 15:00:00 34.2 8 Sudoeste 17 Oeste 0 -- -- 31
2020-07-07 14:00:00 32.9 8 Sudoeste 15 Sudoeste 0 -- -- 32
2020-07-07 13:00:00 31.7 6 Sur 14 Sur 0 -- -- 33
2020-07-07 12:00:00 30.5 5 Sudoeste 10 Sudoeste 0 -- -- 42
2020-07-07 11:00:00 28.1 4 Sudoeste 6 Sudoeste 0 -- -- 42
2020-07-07 10:00:00 25.7 3 Norte 6 Norte 0 -- -- 45
2020-07-07 09:00:00 24.2 0 Calma 6 Nordeste 0 -- -- 47
2020-07-07 08:00:00 23.2 2 Sur 10 Nordeste 0 -- -- 48
2020-07-07 07:00:00 22.9 0 Calma 7 Nordeste 0 -- -- 49
2020-07-07 06:00:00 22.6 0 Calma 5 Nordeste 0 -- -- 48
2020-07-07 05:00:00 22.7 5 Nordeste 7 Nordeste 0 -- -- 37
2020-07-07 04:00:00 22.4 5 Nordeste 6 Nordeste 0 -- -- 44
2020-07-07 03:00:00 22.4 0 Calma 6 Nordeste 0 -- -- 51
2020-07-07 02:00:00 22.3 2 Este 6 Este 0 -- -- 50
2020-07-07 01:00:00 22.6 6 Nordeste 7 Nordeste 0 -- -- 50
2020-07-07 00:00:00 22.6 2 Nordeste 4 Nordeste 0 -- -- 46
2020-07-06 23:00:00 23.1 0 Calma 7 Nordeste 0 -- -- 42
2020-07-06 22:00:00 24.3 0 Calma 6 Nordeste 0 -- -- 39
2020-07-06 21:00:00 26.1 4 Sur 12 Sudoeste 0 -- -- 35
2020-07-06 20:00:00 28.2 6 Sudoeste 15 Sudoeste 0 -- -- 41
2020-07-06 19:00:00 30.5 6 Sudoeste 15 Sudoeste 0 -- -- 43
2020-07-06 18:00:00 32.2 9 Sudoeste 17 Sudoeste 0 -- -- 38
2020-07-06 17:00:00 32.3 10 Sudoeste 17 Sudoeste 0 -- -- 38
2020-07-06 16:00:00 33.5 9 Sudoeste 17 Sudoeste 0 -- -- 35
2020-07-06 15:00:00 31.3 9 Sudoeste 18 Sudoeste 0 -- -- 43
2020-07-06 14:00:00 31.2 9 Sudoeste 18 Oeste 0 -- -- 43
2020-07-06 13:00:00 29.7 6 Sur 14 Sudoeste 0 -- -- 44
2020-07-06 12:00:00 28.4 5 Sudoeste 14 Sudoeste 0 -- -- 45
2020-07-06 11:00:00 27.3 5 Sudoeste 11 Sudoeste 0 -- -- 42
2020-07-06 10:00:00 25.9 3 Sudoeste 4 Sudoeste 0 -- -- 40
2020-07-06 09:00:00 23.8 0 Calma 3 Sudeste 0 -- -- 43
2020-07-06 08:00:00 20.7 0 Calma 4 Sur 0 -- -- 50
2020-07-06 07:00:00 20 2 Sur 4 Sur 0 -- -- 51
2020-07-06 06:00:00 20.1 0 Calma 3 Sudeste 0 -- -- 54
2020-07-06 05:00:00 20.5 0 Calma 3 Noroeste 0 -- -- 56
2020-07-06 04:00:00 20.6 0 Calma 7 Este 0 -- -- 57
2020-07-06 03:00:00 20.3 2 Sudeste 4 Sudeste 0 -- -- 60
2020-07-06 02:00:00 20.7 0 Calma 6 Nordeste 0 -- -- 62
2020-07-06 01:00:00 21.1 4 Este 6 Nordeste 0 -- -- 61
2020-07-06 00:00:00 21.3 0 Calma 3 Sudeste 0 -- -- 60
2020-07-05 23:00:00 22.2 0 Calma 3 Este 0 -- -- 54
2020-07-05 22:00:00 23.3 0 Calma 8 Nordeste 0 -- -- 50
2020-07-05 21:00:00 24.8 6 Nordeste 12 Nordeste 0 -- -- 47
2020-07-05 20:00:00 25.8 8 Nordeste 16 Este 0 -- -- 48
2020-07-05 19:00:00 26.6 4 Norte 18 Nordeste 0 -- -- 48
2020-07-05 18:00:00 26.9 8 Nordeste 20 Nordeste 0 -- -- 47
2020-07-05 17:00:00 27.9 11 Nordeste 26 Nordeste 0 -- -- 46
2020-07-05 16:00:00 27.8 11 Nordeste 24 Nordeste 0 -- -- 47
2020-07-05 15:00:00 27.6 11 Nordeste 27 Nordeste 0 -- -- 49
2020-07-05 14:00:00 27.5 8 Nordeste 25 Nordeste 0 -- -- 48
2020-07-05 13:00:00 27.4 10 Nordeste 27 Nordeste 0 -- -- 50
2020-07-05 12:00:00 27.2 10 Nordeste 23 Nordeste 0 -- -- 48
2020-07-05 11:00:00 26.5 8 Nordeste 21 Nordeste 0 -- -- 52
2020-07-05 10:00:00 25.1 5 Norte 17 Nordeste 0 -- -- 57
2020-07-05 09:00:00 23.9 3 Nordeste 14 Nordeste 0 -- -- 55
2020-07-05 08:00:00 20.4 3 Este 13 Este 0 -- -- 65
2020-07-05 07:00:00 19.6 0 Calma 4 Sudeste 0 -- -- 74
2020-07-05 06:00:00 19.2 0 Calma 3 Nordeste 0 -- -- 79
2020-07-05 05:00:00 19.3 0 Calma 3 Nordeste 0 -- -- 81
2020-07-05 04:00:00 19.6 0 Calma 4 Sur 0 -- -- 84
2020-07-05 03:00:00 20 0 Calma 4 Este 0 -- -- 83
2020-07-05 02:00:00 20.2 0 Calma 4 Este 0 -- -- 83
2020-07-05 01:00:00 20.4 0 Calma 3 Este 0 -- -- 84
2020-07-05 00:00:00 20.5 0 Calma 3 Nordeste 0 -- -- 84
2020-07-04 23:00:00 20.9 0 Calma 4 Este 0 -- -- 85
2020-07-04 22:00:00 21.8 2 Nordeste 7 Nordeste 0 -- -- 82
2020-07-04 21:00:00 22.8 4 Nordeste 13 Norte 0 -- -- 79
2020-07-04 20:00:00 23.8 8 Nordeste 11 Nordeste 0 -- -- 75
2020-07-04 19:00:00 24.3 8 Nordeste 13 Nordeste 0 -- -- 74
2020-07-04 18:00:00 25.2 8 Sudoeste 17 Nordeste 0 -- -- 71
2020-07-04 17:00:00 25.5 8 Nordeste 19 Nordeste 0 -- -- 69
2020-07-04 16:00:00 25.9 6 Norte 23 Nordeste 0 -- -- 67
2020-07-04 15:00:00 25.7 8 Nordeste 22 Nordeste 0 -- -- 70
2020-07-04 14:00:00 25.5 6 Norte 30 Nordeste 0 -- -- 71
2020-07-04 13:00:00 25.7 10 Nordeste 27 Este 0 -- -- 69
2020-07-04 12:00:00 24.6 8 Nordeste 26 Este 0 -- -- 73
2020-07-04 11:00:00 23.5 8 Nordeste 21 Nordeste 0 -- -- 78
2020-07-04 10:00:00 22.7 6 Nordeste 15 Nordeste 0 -- -- 82
2020-07-04 09:00:00 21.2 0 Calma 5 Sudoeste 0 -- -- 85
2020-07-04 08:00:00 19.8 0 Calma 5 Sudoeste 0 -- -- 92
2020-07-04 07:00:00 19.6 2 Sudoeste 6 Sudoeste 0 -- -- 84
2020-07-04 06:00:00 20.2 0 Calma 4 Este 0 -- -- 81
2020-07-04 05:00:00 20.8 3 Este 6 Este 0 -- -- 78
2020-07-04 04:00:00 21.3 0 Calma 15 Nordeste 0 -- -- 76
2020-07-04 03:00:00 21.3 0 Calma 8 Nordeste 0 -- -- 80
2020-07-04 02:00:00 21.3 0 Calma 6 Norte 0 -- -- 79
2020-07-04 01:00:00 21.8 0 Calma 5 Este 0 -- -- 79
2020-07-04 00:00:00 22.3 2 Nordeste 8 Este 0 -- -- 77
2020-07-03 23:00:00 23.1 0 Calma 4 Noroeste 0 -- -- 72
2020-07-03 22:00:00 24.2 2 Sudoeste 8 Sudoeste 0 -- -- 70
2020-07-03 21:00:00 25.6 5 Sur 11 Sur 0 -- -- 64
2020-07-03 20:00:00 26.3 3 Nordeste 13 Sur 0 -- -- 61
2020-07-03 19:00:00 26.7 6 Nordeste 16 Nordeste 0 -- -- 59
2020-07-03 18:00:00 28.3 6 Sur 22 Sudoeste 0 -- -- 56
2020-07-03 17:00:00 29.6 10 Sudoeste 24 Sudoeste 0 -- -- 52
2020-07-03 16:00:00 30.1 9 Sur 20 Sudoeste 0 -- -- 50
2020-07-03 15:00:00 28.8 10 Nordeste 20 Nordeste 0 -- -- 43
2020-07-03 14:00:00 28.2 11 Nordeste 27 Nordeste 0 -- -- 47
2020-07-03 13:00:00 31.6 5 Sur 17 Nordeste 0 -- -- 28
2020-07-03 12:00:00 31.1 6 Este 15 Nordeste 0 -- -- 30
2020-07-03 11:00:00 30.2 3 Norte 10 Sur 0 -- -- 31
2020-07-03 10:00:00 28.5 4 Sur 11 Sur 0 -- -- 34
2020-07-03 09:00:00 25.5 0 Calma 9 Nordeste 0 -- -- 36
2020-07-03 08:00:00 22.5 3 Nordeste 9 Este 0 -- -- 42
2020-07-03 07:00:00 22.6 5 Este 9 Este 0 -- -- 37
2020-07-03 06:00:00 23.9 8 Este 13 Sudeste 0 -- -- 37
2020-07-03 05:00:00 23.4 5 Este 12 Nordeste 0 -- -- 35
2020-07-03 04:00:00 23.4 4 Este 9 Este 0 -- -- 36
2020-07-03 03:00:00 24.5 3 Sudeste 9 Este 0 -- -- 36
2020-07-03 02:00:00 26 4 Este 13 Sudeste 0 -- -- 35
2020-07-03 01:00:00 27.2 6 Sur 20 Oeste 0 -- -- 31
2020-07-03 00:00:00 27.4 7 Noroeste 22 Noroeste 0 -- -- 28
2020-07-02 23:00:00 27.6 4 Sudeste 17 Sudoeste 0 -- -- 29
2020-07-02 22:00:00 27.9 7 Sudoeste 27 Oeste 0 -- -- 37
2020-07-02 21:00:00 31.3 13 Sudoeste 27 Sudoeste 0 -- -- 24
2020-07-02 20:00:00 33.5 12 Sudoeste 26 Sudoeste 0 -- -- 26
2020-07-02 19:00:00 35.5 11 Sudoeste 30 Sudoeste 0 -- -- 24
2020-07-02 18:00:00 37.2 13 Sudoeste 31 Sudoeste 0 -- -- 19
2020-07-02 17:00:00 38.1 11 Sudoeste 26 Sudoeste 0 -- -- 15
2020-07-02 16:00:00 35.5 9 Nordeste 17 Sudoeste 0 -- -- 25
2020-07-02 15:00:00 34.9 4 Sudoeste 17 Sur 0 -- -- 28
2020-07-02 14:00:00 34.2 7 Sur 19 Sur 0 -- -- 25
2020-07-02 13:00:00 33.5 6 Sur 14 Sudoeste 0 -- -- 26
2020-07-02 12:00:00 32.6 7 Sudoeste 14 Sudeste 0 -- -- 25
2020-07-02 11:00:00 31.3 7 Nordeste 16 Nordeste 0 -- -- 26
2020-07-02 10:00:00 30.1 0 Calma 9 Nordeste 0 -- -- 27
2020-07-02 09:00:00 27.8 6 Este 13 Este 0 -- -- 22
2020-07-02 08:00:00 25.8 5 Este 12 Nordeste 0 -- -- 23
2020-07-02 07:00:00 25.2 4 Sudeste 9 Nordeste 0 -- -- 18
2020-07-02 06:00:00 25.2 4 Este 8 Este 0 -- -- 19
2020-07-02 05:00:00 24.8 0 Calma 9 Nordeste 0 -- -- 23
2020-07-02 04:00:00 24.9 3 Este 6 Nordeste 0 -- -- 28
2020-07-02 03:00:00 25 6 Nordeste 7 Este 0 -- -- 28
2020-07-02 02:00:00 25.5 0 Calma 8 Nordeste 0 -- -- 28
2020-07-02 01:00:00 26.2 5 Nordeste 9 Nordeste 0 -- -- 28
2020-07-02 00:00:00 26.9 4 Este 9 Nordeste 0 -- -- 24
2020-07-01 23:00:00 27.5 2 Este 5 Este 0 -- -- 32
2020-07-01 22:00:00 28.6 0 Calma 11 Sur 0 -- -- 33
2020-07-01 21:00:00 31.4 5 Sudoeste 11 Sudoeste 0 -- -- 28
2020-07-01 20:00:00 33 5 Sudoeste 13 Sudoeste 0 -- -- 33
2020-07-01 19:00:00 34.3 8 Sudoeste 17 Sudoeste 0 -- -- 34
2020-07-01 18:00:00 35.2 9 Sudoeste 19 Sudoeste 0 -- -- 30
2020-07-01 17:00:00 35.8 11 Sudoeste 18 Sudoeste 0 -- -- 28
2020-07-01 16:00:00 34.8 5 Sudoeste 15 Sudoeste 0 -- -- 28
2020-07-01 15:00:00 32.4 9 Nordeste 15 Sur 0 -- -- 32
2020-07-01 14:00:00 32.8 4 Norte 14 Sur 0 -- -- 34
2020-07-01 13:00:00 31.9 5 Nordeste 13 Nordeste 0 -- -- 35
2020-07-01 12:00:00 30.4 4 Sudoeste 12 Sudoeste 0 -- -- 46
2020-07-01 11:00:00 28.9 4 Sudoeste 8 Nordeste 0 -- -- 47
2020-07-01 10:00:00 27.7 2 Sudoeste 5 Oeste 0 -- -- 41
2020-07-01 09:00:00 25.4 2 Noroeste 8 Nordeste 0 -- -- 43
2020-07-01 08:00:00 20.8 0 Calma 5 Este 0 -- -- 48
2020-07-01 07:00:00 21.3 4 Nordeste 9 Nordeste 0 -- -- 44
2020-07-01 06:00:00 21 4 Nordeste 9 Nordeste 0 -- -- 47
2020-07-01 05:00:00 21.8 4 Sudeste 10 Nordeste 0 -- -- 47
2020-07-01 04:00:00 20.6 0 Calma 9 Nordeste 0 -- -- 67
2020-07-01 03:00:00 20.7 5 Nordeste 8 Este 0 -- -- 68
2020-07-01 02:00:00 21.1 4 Nordeste 9 Nordeste 0 -- -- 70
2020-07-01 01:00:00 21 4 Nordeste 6 Este 0 -- -- 76
2020-07-01 00:00:00 21 0 Calma 2 Sudoeste 0 -- -- 70
2020-06-30 23:00:00 21.9 0 Calma 8 Sudoeste 0 -- -- 67
2020-06-30 22:00:00 23.3 2 Oeste 10 Nordeste 0 -- -- 68
2020-06-30 21:00:00 25.5 3 Sudoeste 13 Sudoeste 0 -- -- 60
2020-06-30 20:00:00 26.7 7 Sudoeste 15 Sudoeste 0 -- -- 57
2020-06-30 19:00:00 26.9 6 Sur 18 Sur 0 -- -- 57
2020-06-30 18:00:00 28.1 10 Sudoeste 20 Sudoeste 0 -- -- 53
2020-06-30 17:00:00 29.3 8 Sur 17 Sudoeste 0 -- -- 50
2020-06-30 16:00:00 28.5 10 Sudoeste 18 Sudoeste 0 -- -- 50
2020-06-30 15:00:00 28.5 8 Sudoeste 19 Sur 0 -- -- 47
2020-06-30 14:00:00 28.2 9 Sudoeste 18 Oeste 0 -- -- 43
2020-06-30 13:00:00 28.7 4 Norte 15 Sudoeste 0 -- -- 45
2020-06-30 12:00:00 28.1 10 Sudoeste 17 Sudoeste 0 -- -- 49
2020-06-30 11:00:00 27.3 6 Nordeste 12 Nordeste 0 -- -- 46
2020-06-30 10:00:00 26.3 3 Sudoeste 8 Este 0 -- -- 34
2020-06-30 09:00:00 23.5 0 Calma 10 Nordeste 0 -- -- 44
2020-06-30 08:00:00 22 0 Calma 3 Sudeste 0 -- -- 40
2020-06-30 07:00:00 20.5 0 Calma 6 Este 0 -- -- 42
2020-06-30 06:00:00 20.8 0 Calma 5 Sur 0 -- -- 45
2020-06-30 05:00:00 21.7 0 Calma 4 Noroeste 0 -- -- 41
2020-06-30 04:00:00 22.2 0 Calma 14 Nordeste 0 -- -- 40
2020-06-30 03:00:00 22.6 4 Este 9 Este 0 -- -- 40
2020-06-30 02:00:00 24.4 6 Nordeste 20 Nordeste 0 -- -- 35
2020-06-30 01:00:00 20.7 0 Calma 6 Nordeste 0 -- -- 49
2020-06-30 00:00:00 21.3 4 Nordeste 8 Este 0 -- -- 48
2020-06-29 23:00:00 22.4 2 Este 4 Nordeste 0 -- -- 41
2020-06-29 22:00:00 23.5 2 Nordeste 5 Este 0 -- -- 43
2020-06-29 21:00:00 25.8 2 Este 10 Este 0 -- -- 38
2020-06-29 20:00:00 27.4 4 Sudoeste 15 Sudoeste 0 -- -- 37
2020-06-29 19:00:00 28.6 6 Sur 14 Sudoeste 0 -- -- 34
2020-06-29 18:00:00 28.7 5 Nordeste 18 Sudoeste 0 -- -- 34
2020-06-29 17:00:00 30.2 6 Sudoeste 22 Nordeste 0 -- -- 32
2020-06-29 16:00:00 28.9 10 Nordeste 20 Nordeste 0 -- -- 32
2020-06-29 15:00:00 30.1 6 Sudoeste 19 Sudoeste 0 -- -- 37
2020-06-29 14:00:00 30 7 Sur 19 Sudoeste 0 -- -- 35
2020-06-29 13:00:00 28.1 8 Nordeste 17 Nordeste 0 -- -- 38
2020-06-29 12:00:00 28.5 6 Nordeste 17 Sur 0 -- -- 39
2020-06-29 11:00:00 27.4 4 Sudoeste 8 Sudoeste 0 -- -- 44
2020-06-29 10:00:00 25.1 3 Sudoeste 5 Sudoeste 0 -- -- 48
2020-06-29 09:00:00 23.1 0 Calma 7 Nordeste 0 -- -- 52
2020-06-29 08:00:00 20.4 0 Calma 3 Sudeste 0 -- -- 58
2020-06-29 07:00:00 20.6 2 Sudeste 6 Sudeste 0 -- -- 56
2020-06-29 06:00:00 21.4 3 Noroeste 9 Sudoeste 0 -- -- 50
2020-06-29 05:00:00 20.8 3 Nordeste 4 Nordeste 0 -- -- 60
2020-06-29 04:00:00 21.2 0 Calma 3 Este 0 -- -- 58
2020-06-29 03:00:00 21.8 0 Calma 6 Nordeste 0 -- -- 52
2020-06-29 02:00:00 21.9 3 Este 6 Nordeste 0 -- -- 50
2020-06-29 01:00:00 22.1 0 Calma 3 Nordeste 0 -- -- 61
2020-06-29 00:00:00 22.3 0 Calma 4 Este 0 -- -- 65
2020-06-28 23:00:00 22.7 2 Este 5 Este 0 -- -- 59
2020-06-28 22:00:00 24.4 2 Sudoeste 8 Norte 0 -- -- 66
2020-06-28 21:00:00 26.3 5 Nordeste 11 Nordeste 0 -- -- 51
2020-06-28 20:00:00 28.6 5 Nordeste 12 Sudoeste 0 -- -- 44
2020-06-28 19:00:00 29.6 4 Sudoeste 13 Sudoeste 0 -- -- 48
2020-06-28 18:00:00 29.7 6 Sudoeste 16 Sur 0 -- -- 52
2020-06-28 17:00:00 30.6 11 Sur 19 Sudoeste 0 -- -- 46
2020-06-28 16:00:00 31.6 11 Sudoeste 18 Sudoeste 0 -- -- 42
2020-06-28 15:00:00 31.2 8 Sudoeste 19 Sudoeste 0 -- -- 44
2020-06-28 14:00:00 29.7 10 Sur 20 Sudoeste 0 -- -- 50
2020-06-28 13:00:00 29.2 8 Sudoeste 18 Sudoeste 0 -- -- 51
2020-06-28 12:00:00 28.5 6 Nordeste 16 Nordeste 0 -- -- 56
2020-06-28 11:00:00 27.8 4 Sudoeste 9 Nordeste 0 -- -- 55
2020-06-28 10:00:00 25.8 3 Sudoeste 4 Sudoeste 0 -- -- 50
2020-06-28 09:00:00 24.8 0 Calma 4 Sudoeste 0 -- -- 47
2020-06-28 08:00:00 22.8 0 Calma 5 Este 0 -- -- 52
2020-06-28 07:00:00 22.7 2 Este 5 Nordeste 0 -- -- 48
2020-06-28 06:00:00 22.7 2 Nordeste 5 Este 0 -- -- 49
2020-06-28 05:00:00 22.1 0 Calma 2 Nordeste 0 -- -- 51
2020-06-28 04:00:00 22.6 0 Calma 2 Sudeste 0 -- -- 50
2020-06-28 03:00:00 23.6 0 Calma 5 Nordeste 0 -- -- 47
2020-06-28 02:00:00 25.3 0 Calma 10 Nordeste 0 -- -- 42
2020-06-28 01:00:00 25.1 5 Nordeste 8 Nordeste 0 -- -- 45
2020-06-28 00:00:00 25.4 0 Calma 5 Nordeste 0 -- -- 44
2020-06-27 23:00:00 25.9 2 Nordeste 7 Este 0 -- -- 44
2020-06-27 22:00:00 27 4 Norte 10 Nordeste 0 -- -- 41
2020-06-27 21:00:00 28.9 5 Nordeste 10 Este 0 -- -- 46
2020-06-27 20:00:00 30 4 Sudoeste 15 Sudoeste 0 -- -- 41
2020-06-27 19:00:00 30.7 5 Sur 15 Sudoeste 0 -- -- 40
2020-06-27 18:00:00 31 8 Sur 21 Sudoeste 0 -- -- 39
2020-06-27 17:00:00 32.2 8 Sur 30 Sudoeste 0 -- -- 37
2020-06-27 16:00:00 32.6 9 Sudoeste 31 Sudoeste 0 -- -- 35
2020-06-27 15:00:00 31.6 8 Sur 22 Sudoeste 0 -- -- 32
2020-06-27 14:00:00 31.6 10 Sudoeste 23 Oeste 0 -- -- 30
2020-06-27 13:00:00 30.6 9 Sudoeste 19 Sudoeste 0 -- -- 31
2020-06-27 12:00:00 29.2 7 Sudoeste 15 Noroeste 0 -- -- 35
2020-06-27 11:00:00 28.5 4 Nordeste 15 Sudeste 0 -- -- 35
2020-06-27 10:00:00 26.7 3 Norte 15 Nordeste 0 -- -- 35
2020-06-27 09:00:00 24.7 8 Nordeste 16 Este 0 -- -- 37
2020-06-27 08:00:00 21.2 4 Este 10 Nordeste 0 -- -- 44
2020-06-27 07:00:00 21.4 6 Nordeste 12 Este 0 -- -- 41
2020-06-27 06:00:00 21.2 4 Este 10 Nordeste 0 -- -- 40
2020-06-27 05:00:00 20.8 6 Este 10 Este 0 -- -- 38
2020-06-27 04:00:00 21.4 7 Este 10 Este 0 -- -- 37
2020-06-27 03:00:00 21.7 7 Este 12 Nordeste 0 -- -- 37
2020-06-27 02:00:00 21.9 5 Nordeste 11 Nordeste 0 -- -- 39
2020-06-27 01:00:00 22.5 5 Nordeste 8 Nordeste 0 -- -- 53
2020-06-27 00:00:00 23.1 0 Calma 6 Nordeste 0 -- -- 57
2020-06-26 23:00:00 23.9 2 Este 4 Sudoeste 0 -- -- 57
2020-06-26 22:00:00 25.8 2 Sudeste 12 Sudoeste 0 -- -- 52
2020-06-26 21:00:00 27.8 4 Sudoeste 18 Sudoeste 0 -- -- 48
2020-06-26 20:00:00 28.3 6 Nordeste 21 Nordeste 0 -- -- 46
2020-06-26 19:00:00 29.5 4 Oeste 14 Este 0 -- -- 44
2020-06-26 18:00:00 30.6 8 Sur 21 Sudoeste 0 -- -- 40
2020-06-26 17:00:00 31.2 10 Sur 21 Sudoeste 0 -- -- 41
2020-06-26 16:00:00 30.2 7 Sudoeste 23 Sudoeste 0 -- -- 44
2020-06-26 15:00:00 29.4 7 Sudoeste 21 Sur 0 -- -- 45
2020-06-26 14:00:00 29.3 6 Sur 16 Sudoeste 0 -- -- 48
2020-06-26 13:00:00 28 4 Sudoeste 14 Sudoeste 0 -- -- 49
2020-06-26 12:00:00 26.6 6 Sudoeste 15 Sudoeste 0 -- -- 51
2020-06-26 11:00:00 25.6 5 Este 14 Nordeste 0 -- -- 51
2020-06-26 10:00:00 23.4 9 Nordeste 17 Nordeste 0 -- -- 57
2020-06-26 09:00:00 21.8 5 Nordeste 9 Este 0 -- -- 60
2020-06-26 08:00:00 18.9 2 Sudeste 3 Sudeste 0 -- -- 70
2020-06-26 07:00:00 18.2 3 Este 7 Nordeste 0 -- -- 69
2020-06-26 06:00:00 18.4 0 Calma 3 Este 0 -- -- 69
2020-06-26 05:00:00 18.7 0 Calma 3 Este 0 -- -- 67
2020-06-26 04:00:00 19.3 0 Calma 4 Sudeste 0 -- -- 64
2020-06-26 03:00:00 19.9 0 Calma 5 Este 0 -- -- 62
2020-06-26 02:00:00 20.7 5 Nordeste 6 Nordeste 0 -- -- 59
2020-06-26 01:00:00 20.8 2 Sudeste 3 Sudeste 0 -- -- 59
2020-06-26 00:00:00 21.3 0 Calma 7 Nordeste 0 -- -- 58
2020-06-25 23:00:00 21.9 5 Nordeste 7 Nordeste 0 -- -- 57
2020-06-25 22:00:00 23 3 Nordeste 11 Sudoeste 0 -- -- 51
2020-06-25 21:00:00 24.3 5 Sudoeste 15 Sur 0 -- -- 49
2020-06-25 20:00:00 25.4 8 Sudoeste 19 Sudoeste 0 -- -- 47
2020-06-25 19:00:00 26 8 Sudoeste 19 Sudoeste 0 -- -- 47
2020-06-25 18:00:00 27 11 Sudoeste 21 Sudoeste 0 -- -- 45
2020-06-25 17:00:00 28.7 11 Sudoeste 21 Sudoeste 0 -- -- 42
2020-06-25 16:00:00 28.5 11 Sudoeste 21 Sudoeste 0 -- -- 43
2020-06-25 15:00:00 28.6 9 Sudoeste 21 Sudoeste 0 -- -- 41
2020-06-25 14:00:00 27.5 9 Sudoeste 22 Sudoeste 0 -- -- 43
2020-06-25 13:00:00 27.3 9 Sudoeste 18 Sudoeste 0 -- -- 43
2020-06-25 12:00:00 26.3 10 Sudoeste -- -- -- -- -- 47
2020-06-25 11:00:00 26.1 11 Sudoeste -- -- -- -- -- 47
2020-06-25 10:00:00 -- -- -- -- -- -- -- -- --
2020-06-25 09:00:00 21.1 3 Sudoeste 5 Sudoeste 0 -- -- 53
2020-06-25 08:00:00 18.5 0 Calma 3 Sudoeste 0 -- -- 60
2020-06-25 07:00:00 18.4 0 Calma 4 Sur 0 -- -- 58
2020-06-25 06:00:00 18.7 0 Calma 4 Este 0 -- -- 57
2020-06-25 05:00:00 18.8 0 Calma 3 Sudeste 0 -- -- 55
2020-06-25 04:00:00 19.1 0 Calma 3 Este 0 -- -- 55
2020-06-25 03:00:00 20.1 0 Calma 8 Nordeste 0 -- -- 51
2020-06-25 02:00:00 21.5 2 Este 21 Nordeste 0 -- -- 45
2020-06-25 01:00:00 21.7 6 Nordeste 14 Nordeste 0 -- -- 44
2020-06-25 00:00:00 20.5 3 Este 14 Norte 0 -- -- 53
2020-06-24 23:00:00 20.6 3 Este 8 Nordeste 0 -- -- 59
2020-06-24 22:00:00 21.3 4 Nordeste 6 Este 0 -- -- 56
2020-06-24 21:00:00 22.9 2 Sudoeste 12 Sudoeste 0 -- -- 56
2020-06-24 20:00:00 23.6 8 Sudoeste 17 Sudoeste 0 -- -- 66
2020-06-24 19:00:00 25.3 8 Sudoeste 15 Sudoeste 0 -- -- 56
2020-06-24 18:00:00 25.5 7 Sudoeste 23 Sudoeste 0 -- -- 61
2020-06-24 17:00:00 27 6 Nordeste 19 Sur 0 -- -- 55
2020-06-24 16:00:00 27.8 10 Nordeste 19 Nordeste 0 -- -- 48
2020-06-24 15:00:00 26 7 Nordeste 18 Nordeste 0 -- -- 55
2020-06-24 14:00:00 25.8 6 Norte 20 Sudoeste 0 -- -- 55
2020-06-24 13:00:00 26.5 9 Sur 18 Sudoeste 0 -- -- 49
2020-06-24 12:00:00 26.7 4 Sur 17 Sudoeste 0 -- -- 47
2020-06-24 11:00:00 25.9 6 Sudoeste 12 Sudoeste 0 -- -- 47
2020-06-24 10:00:00 24.3 4 Sudoeste 6 Oeste 0 -- -- 51
2020-06-24 09:00:00 22.3 0 Calma 5 Sudoeste 0 -- -- 56
2020-06-24 08:00:00 20.2 0 Calma 5 Oeste 0 -- -- 60
2020-06-24 07:00:00 20.1 2 Noroeste 5 Sudeste 0 -- -- 56
2020-06-24 06:00:00 19.5 3 Este 6 Nordeste 0 -- -- 59
2020-06-24 05:00:00 18.9 0 Calma 6 Nordeste 0 -- -- 68
2020-06-24 04:00:00 19.5 0 Calma 9 Sudoeste 0 -- -- 68
2020-06-24 03:00:00 19.8 3 Sudoeste 9 Sudoeste 0 -- -- 66
2020-06-24 02:00:00 20.1 0 Calma 5 Este 0 -- -- 64
2020-06-24 01:00:00 20.9 2 Este 8 Norte 0 -- -- 62
2020-06-24 00:00:00 21.9 0 Calma 12 Este 0 -- -- 58
2020-06-23 23:00:00 22.9 6 Nordeste 21 Sudeste 0 -- -- 57
2020-06-23 22:00:00 23.1 5 Nordeste 13 Nordeste 0 -- -- 55
2020-06-23 21:00:00 24.6 5 Sudoeste 9 Sudoeste 0 -- -- 55
2020-06-23 20:00:00 25.7 4 Norte 9 Nordeste 0 -- -- 50
2020-06-23 19:00:00 26.1 4 Norte 20 Nordeste 0 -- -- 48
2020-06-23 18:00:00 27.2 8 Nordeste 18 Este 0 -- -- 45
2020-06-23 17:00:00 27.9 14 Nordeste 24 Nordeste 0 -- -- 43
2020-06-23 16:00:00 28.5 10 Nordeste 23 Nordeste 0 -- -- 41
2020-06-23 15:00:00 29.1 7 Este 25 Este 0 -- -- 40
2020-06-23 14:00:00 29.2 8 Nordeste 22 Este 0 -- -- 42
2020-06-23 13:00:00 27.8 8 Nordeste 24 Nordeste 0 -- -- 44
2020-06-23 12:00:00 27 8 Nordeste 19 Nordeste 0 -- -- 45
2020-06-23 11:00:00 26.2 12 Nordeste 22 Nordeste 0 -- -- 45
2020-06-23 10:00:00 26.1 5 Nordeste 19 Este 0 -- -- 44
2020-06-23 09:00:00 24.9 3 Este 12 Este 0 -- -- 43
2020-06-23 08:00:00 22.8 3 Este 14 Este 0 -- -- 41
2020-06-23 07:00:00 21.4 2 Sudoeste 11 Nordeste 0 -- -- 47
2020-06-23 06:00:00 22.2 3 Nordeste 14 Nordeste 0 -- -- 44
2020-06-23 05:00:00 21.3 3 Este 13 Este 0 -- -- 50
2020-06-23 04:00:00 20 2 Sur 7 Este 0 -- -- 57
2020-06-23 03:00:00 19.3 0 Calma 4 Sudeste 0 -- -- 62
2020-06-23 02:00:00 19.8 0 Calma 7 Este 0 -- -- 62
2020-06-23 01:00:00 19.9 0 Calma 3 Este 0 -- -- 56
2020-06-23 00:00:00 20.3 0 Calma 4 Sur 0 -- -- 57
2020-06-22 23:00:00 20.9 0 Calma 4 Sudoeste 0 -- -- 55
2020-06-22 22:00:00 22.5 0 Calma 6 Oeste 0 -- -- 49
2020-06-22 21:00:00 24.5 4 Sudoeste 9 Nordeste 0 -- -- 43
2020-06-22 20:00:00 25.3 4 Norte 14 Nordeste 0 -- -- 39
2020-06-22 19:00:00 26.8 7 Nordeste 18 Sudoeste 0 -- -- 35
2020-06-22 18:00:00 29.3 4 Noroeste 18 Sur 0 -- -- 30
2020-06-22 17:00:00 31.2 6 Norte 27 Norte 0 -- -- 25
2020-06-22 16:00:00 32.1 9 Este 27 Nordeste 0 -- -- 22
2020-06-22 15:00:00 31.2 7 Nordeste 26 Este 0 -- -- 25
2020-06-22 14:00:00 29.9 9 Nordeste 23 Nordeste 0 -- -- 30
2020-06-22 13:00:00 28.8 7 Nordeste 18 Nordeste 0 -- -- 40
2020-06-22 12:00:00 28.2 3 Noroeste 14 Nordeste 0 -- -- 45
2020-06-22 11:00:00 27 6 Nordeste 12 Nordeste 0 -- -- 47
2020-06-22 10:00:00 25.7 2 Sudoeste 13 Nordeste 0 -- -- 47
2020-06-22 09:00:00 24 3 Nordeste 10 Nordeste 0 -- -- 43
2020-06-22 08:00:00 21 0 Calma 4 Nordeste 0 -- -- 54
2020-06-22 07:00:00 21.4 2 Este 10 Este 0 -- -- 46
2020-06-22 06:00:00 22.6 4 Nordeste 10 Nordeste 0 -- -- 43
2020-06-22 05:00:00 21.8 2 Nordeste 4 Sudeste 0 -- -- 43
2020-06-22 04:00:00 21.5 0 Calma 4 Sudeste 0 -- -- 50
2020-06-22 03:00:00 21.3 0 Calma 5 Norte 0 -- -- 60
2020-06-22 02:00:00 21.5 3 Nordeste 5 Nordeste 0 -- -- 60
2020-06-22 01:00:00 22 0 Calma 5 Este 0 -- -- 57
2020-06-22 00:00:00 22.2 0 Calma 4 Nordeste 0 -- -- 58
2020-06-21 23:00:00 22.5 3 Nordeste 4 Nordeste 0 -- -- 56
2020-06-21 22:00:00 24 0 Calma 5 Nordeste 0 -- -- 51
2020-06-21 21:00:00 26.4 0 Calma 8 Sudoeste 0 -- -- 48
2020-06-21 20:00:00 28.2 5 Oeste 12 Oeste 0 -- -- 44
2020-06-21 19:00:00 29.9 8 Sudoeste 16 Sur 0 -- -- 40
2020-06-21 18:00:00 30.8 9 Sudoeste 17 Sur 0 -- -- 34
2020-06-21 17:00:00 32.2 9 Sudoeste 20 Sudoeste 0 -- -- 30
2020-06-21 16:00:00 32.7 9 Sudoeste 18 Sudoeste 0 -- -- 30
2020-06-21 15:00:00 31.5 7 Sur 20 Sudoeste 0 -- -- 36
2020-06-21 14:00:00 31.3 10 Sudoeste 17 Sudoeste 0 -- -- 34
2020-06-21 13:00:00 30.4 7 Sudoeste 15 Oeste 0 -- -- 35
2020-06-21 12:00:00 29.9 5 Oeste 10 Oeste 0 -- -- 42
2020-06-21 11:00:00 27.9 4 Sudoeste 7 Sudoeste 0 -- -- 46
2020-06-21 10:00:00 26.3 2 Sudoeste 3 Sudoeste 0 -- -- 47
2020-06-21 09:00:00 23.6 0 Calma 8 Nordeste 0 -- -- 46
2020-06-21 08:00:00 20.4 0 Calma 6 Nordeste 0 -- -- 58
2020-06-21 07:00:00 19.7 5 Nordeste 7 Nordeste 0 -- -- 56
2020-06-21 06:00:00 20.1 5 Nordeste 8 Nordeste 0 -- -- 54
2020-06-21 05:00:00 20 0 Calma 6 Nordeste 0 -- -- 57
2020-06-21 04:00:00 20.4 3 Este 7 Nordeste 0 -- -- 55
2020-06-21 03:00:00 20.2 3 Nordeste 4 Nordeste 0 -- -- 58
2020-06-21 02:00:00 20.6 2 Este 6 Nordeste 0 -- -- 58
2020-06-21 01:00:00 21 3 Este 6 Nordeste 0 -- -- 58
2020-06-21 00:00:00 21.4 3 Nordeste 4 Nordeste 0 -- -- 58
2020-06-20 23:00:00 22.2 0 Calma 3 Nordeste 0 -- -- 55
2020-06-20 22:00:00 22.5 0 Calma 5 Sudoeste 0 -- -- 59
2020-06-20 21:00:00 24.1 2 Oeste 9 Sudoeste 0 -- -- 54
2020-06-20 20:00:00 25.5 5 Sudoeste 14 Sudoeste 0 -- -- 52
2020-06-20 19:00:00 26.6 7 Sudoeste 17 Sudoeste 0 -- -- 50
2020-06-20 18:00:00 26.6 9 Sudoeste 17 Sudoeste 0 -- -- 48
2020-06-20 17:00:00 28.1 10 Sudoeste 18 Sudoeste 0 -- -- 43
2020-06-20 16:00:00 27 9 Sur 18 Sudoeste 0 -- -- 47
2020-06-20 15:00:00 26.5 9 Sur 18 Sudoeste 0 -- -- 47
2020-06-20 14:00:00 26.8 8 Sudoeste 17 Sur 0 -- -- 48
2020-06-20 13:00:00 26.2 8 Sudoeste 16 Sur 0 -- -- 51
2020-06-20 12:00:00 25.3 9 Sur 20 Sudoeste 0 -- -- 50
2020-06-20 11:00:00 24.4 4 Sudoeste 9 Sudoeste 0 -- -- 56
2020-06-20 10:00:00 22 2 Oeste 5 Oeste 0 -- -- 66
2020-06-20 09:00:00 19.8 0 Calma 8 Nordeste 0 -- -- 68
2020-06-20 08:00:00 17.7 0 Calma 3 Sudeste 0 -- -- 76
2020-06-20 07:00:00 17 0 Calma 4 Nordeste 0 -- -- 75
2020-06-20 06:00:00 17.8 0 Calma 3 Oeste 0 -- -- 73
2020-06-20 05:00:00 18.9 0 Calma 8 Este 0 -- -- 69
2020-06-20 04:00:00 18.6 7 Nordeste 9 Nordeste 0 -- -- 72
2020-06-20 03:00:00 18.6 0 Calma 2 Sudeste 0 -- -- 73
2020-06-20 02:00:00 18.8 0 Calma 7 Norte 0 -- -- 74
2020-06-20 01:00:00 19.7 5 Nordeste 18 Este 0 -- -- 69
2020-06-20 00:00:00 23.3 14 Nordeste 21 Nordeste 0 -- -- 55
2020-06-19 23:00:00 22.6 6 Nordeste 10 Nordeste 0 -- -- 61
2020-06-19 22:00:00 22.8 5 Nordeste 9 Este 0 -- -- 60
2020-06-19 21:00:00 24.4 6 Este 9 Nordeste 0 -- -- 55
2020-06-19 20:00:00 25.2 5 Sur 17 Sudoeste 0 -- -- 52
2020-06-19 19:00:00 26.3 9 Sudoeste 19 Sudoeste 0 -- -- 49
2020-06-19 18:00:00 27.1 9 Sudoeste 23 Sudoeste 0 -- -- 47
2020-06-19 17:00:00 27.4 10 Sudoeste 23 Sudoeste 0 -- -- 48
2020-06-19 16:00:00 28.4 12 Sudoeste 23 Sudoeste 0 -- -- 43
2020-06-19 15:00:00 27.1 9 Sudoeste 19 Sur 0 -- -- 47
2020-06-19 14:00:00 26.7 7 Sudoeste 18 Sudoeste 0 -- -- 41
2020-06-19 13:00:00 25.1 6 Sur 17 Sur 0 -- -- 43
2020-06-19 12:00:00 25 8 Sur 18 Sudoeste 0 -- -- 50
2020-06-19 11:00:00 23.5 4 Oeste 9 Sudoeste 0 -- -- 57
2020-06-19 10:00:00 21.6 2 Sudoeste 8 Nordeste 0 -- -- 57
2020-06-19 09:00:00 20 4 Nordeste 9 Nordeste 0 -- -- 58
2020-06-19 08:00:00 16.4 0 Calma 8 Este 0 -- -- 73
2020-06-19 07:00:00 16.2 0 Calma 9 Sur 0 -- -- 77
2020-06-19 06:00:00 16.7 0 Calma 5 Sudeste 0 -- -- 61
2020-06-19 05:00:00 17.2 2 Sur 4 Sur 0 -- -- 62
2020-06-19 04:00:00 18.4 2 Noroeste 9 Este 0 -- -- 55
2020-06-19 03:00:00 18.8 0 Calma 11 Nordeste 0 -- -- 54
2020-06-19 02:00:00 19.4 8 Nordeste 12 Nordeste 0 -- -- 58
2020-06-19 01:00:00 20.8 3 Este 8 Este 0 -- -- 42
2020-06-19 00:00:00 20.8 3 Este 10 Nordeste 0 -- -- 48
2020-06-18 23:00:00 21.9 3 Sudeste 8 Sudoeste 0 -- -- 45
2020-06-18 22:00:00 23.2 5 Sudoeste 15 Sudoeste 0 -- -- 41
2020-06-18 21:00:00 25 8 Sudoeste 20 Sudoeste 0 -- -- 39
2020-06-18 20:00:00 25.4 12 Sudoeste 22 Sudoeste 0 -- -- 45
2020-06-18 19:00:00 25.4 8 Sudoeste 19 Sudoeste 0 -- -- 55
2020-06-18 18:00:00 25.5 9 Sudoeste 18 Sudoeste 0 -- -- 54
2020-06-18 17:00:00 26 10 Sudoeste 19 Sur 0 -- -- 52
2020-06-18 16:00:00 26.2 10 Sudoeste 22 Sudoeste 0 -- -- 54
2020-06-18 15:00:00 26.4 11 Sudoeste 20 Sudoeste 0 -- -- 52
2020-06-18 14:00:00 25.2 9 Sudoeste 18 Sudoeste 0 -- -- 53
2020-06-18 13:00:00 23.1 8 Sur 18 Sudoeste 0 -- -- 63
2020-06-18 12:00:00 24.1 10 Sudoeste 21 Oeste 0 -- -- 59
2020-06-18 11:00:00 24.6 9 Sudoeste 14 Sudoeste 0 -- -- 54
2020-06-18 10:00:00 24.5 7 Nordeste 16 Nordeste 0 -- -- 43
2020-06-18 09:00:00 22.9 5 Nordeste 13 Nordeste 0 -- -- 47
2020-06-18 08:00:00 19.7 3 Nordeste 8 Nordeste 0 -- -- 58
2020-06-18 07:00:00 19.3 0 Calma 7 Nordeste 0 -- -- 54
2020-06-18 06:00:00 19.5 5 Nordeste 12 Nordeste 0 -- -- 53
2020-06-18 05:00:00 20.2 6 Nordeste 10 Este 0 -- -- 50
2020-06-18 04:00:00 20 8 Nordeste 11 Nordeste 0 -- -- 50
2020-06-18 03:00:00 20.2 3 Este 7 Este 0 -- -- 51
2020-06-18 02:00:00 20.7 3 Este 6 Nordeste 0 -- -- 51
2020-06-18 01:00:00 21.1 0 Calma 5 Nordeste 0 -- -- 51
2020-06-18 00:00:00 21.4 0 Calma 3 Nordeste 0 -- -- 53
2020-06-17 23:00:00 22.6 3 Sudeste 6 Sur 0 -- -- 49
2020-06-17 22:00:00 23.9 2 Este 18 Sudoeste 0 -- -- 46
2020-06-17 21:00:00 25 10 Sudoeste 23 Sudoeste 0 -- -- 47
2020-06-17 20:00:00 27.8 10 Sudoeste 24 Sudoeste 0 -- -- 38
2020-06-17 19:00:00 26.8 10 Nordeste 16 Nordeste 0 -- -- 46
2020-06-17 18:00:00 27.4 6 Nordeste 14 Nordeste 0 -- -- 44
2020-06-17 17:00:00 28.6 7 Nordeste 18 Nordeste 0 -- -- 41
2020-06-17 16:00:00 29 8 Sur 19 Sudoeste 0 -- -- 40
2020-06-17 15:00:00 28.7 6 Sur 23 Sudoeste 0 -- -- 41
2020-06-17 14:00:00 28.2 9 Sur 22 Sudoeste 0 -- -- 43
2020-06-17 13:00:00 27.5 5 Sudoeste 16 Nordeste 0 -- -- 47
2020-06-17 12:00:00 26 8 Nordeste 19 Sudoeste 0 -- -- 50
2020-06-17 11:00:00 25 8 Nordeste 18 Nordeste 0 -- -- 50
2020-06-17 10:00:00 23.9 3 Sudoeste 8 Sudoeste 0 -- -- 52
2020-06-17 09:00:00 21.7 0 Calma 4 Oeste 0 -- -- 57
2020-06-17 08:00:00 19.8 3 Norte 14 Nordeste 0 -- -- 62
2020-06-17 07:00:00 18.5 5 Nordeste 10 Nordeste 0 -- -- 65
2020-06-17 06:00:00 18.9 3 Nordeste 9 Nordeste 0 -- -- 64
2020-06-17 05:00:00 19.2 0 Calma 9 Este 0 -- -- 63
2020-06-17 04:00:00 19.9 5 Este 13 Sudeste 0 -- -- 62
2020-06-17 03:00:00 20.9 6 Sudeste 17 Sudoeste 0 -- -- 58
2020-06-17 02:00:00 21 5 Sudoeste 21 Noroeste 0 -- -- 59
2020-06-17 01:00:00 21.6 5 Sudoeste 29 Noroeste 0 -- -- 58
2020-06-17 00:00:00 21.4 6 Oeste 26 Noroeste 0 -- -- 60
2020-06-16 23:00:00 22.4 9 Noroeste 29 Oeste 0 -- -- 53
2020-06-16 22:00:00 23.1 5 Sudoeste 21 Norte 0 -- -- 51
2020-06-16 21:00:00 24.5 5 Noroeste 28 Noroeste 0 -- -- 46
2020-06-16 20:00:00 26.4 9 Sudoeste 33 Sudoeste 0 -- -- 40
2020-06-16 19:00:00 27.4 16 Sudoeste 38 Oeste 0 -- -- 38
2020-06-16 18:00:00 28.8 14 Sudoeste 39 Sudoeste 0 -- -- 35
2020-06-16 17:00:00 30.4 16 Sudoeste 42 Sudoeste 0 -- -- 29
2020-06-16 16:00:00 30.5 12 Sudoeste 35 Sudoeste 0 -- -- 30
2020-06-16 15:00:00 29.5 12 Sudoeste 33 Sudoeste 0 -- -- 32
2020-06-16 14:00:00 28.1 20 Sudoeste 40 Sudoeste 0 -- -- 28
2020-06-16 13:00:00 27.1 14 Sudoeste 41 Sudoeste 0 -- -- 29
2020-06-16 12:00:00 26.3 15 Sudoeste 34 Sudoeste 0 -- -- 37
2020-06-16 11:00:00 24.8 10 Sudoeste 33 Sudoeste 0 -- -- 40
2020-06-16 10:00:00 23.8 10 Oeste 29 Noroeste 0 -- -- 41
2020-06-16 09:00:00 22.1 3 Sudoeste 22 Norte 0 -- -- 46
2020-06-16 08:00:00 19.4 5 Noroeste 12 Nordeste 0 -- -- 50
2020-06-16 07:00:00 18.6 4 Este 9 Sudoeste 0 -- -- 51
2020-06-16 06:00:00 19.7 2 Este 9 Nordeste 0 -- -- 47
2020-06-16 05:00:00 20.5 3 Nordeste 10 Nordeste 0 -- -- 45
2020-06-16 04:00:00 19.9 0 Calma 9 Este 0 -- -- 46
2020-06-16 03:00:00 20.5 3 Nordeste 8 Nordeste 0 -- -- 45
2020-06-16 02:00:00 21.9 4 Nordeste 9 Nordeste 0 -- -- 40
2020-06-16 01:00:00 21.4 5 Nordeste 8 Nordeste 0 -- -- 49
2020-06-16 00:00:00 21.9 0 Calma 5 Nordeste 0 -- -- 52
2020-06-15 23:00:00 22.2 0 Calma 4 Nordeste 0 -- -- 51
2020-06-15 22:00:00 23.9 3 Sur 7 Nordeste 0 -- -- 48
2020-06-15 21:00:00 25.3 3 Nordeste 12 Sur 0 -- -- 47
2020-06-15 20:00:00 27.4 7 Sur 15 Sudoeste 0 -- -- 37
2020-06-15 19:00:00 28.2 10 Sudoeste 23 Sudoeste 0 -- -- 36
2020-06-15 18:00:00 28.7 9 Sur 23 Sudoeste 0 -- -- 35
2020-06-15 17:00:00 30.4 9 Sur 19 Sudoeste 0 -- -- 35
2020-06-15 16:00:00 29.1 6 Sur 23 Sudoeste 0 -- -- 36
2020-06-15 15:00:00 28 7 Sudeste 21 Sudoeste 0 -- -- 37
2020-06-15 14:00:00 26.2 7 Este 15 Este 0 -- -- 42
2020-06-15 13:00:00 24.8 6 Sudoeste 18 Nordeste 0 -- -- 45
2020-06-15 12:00:00 23.5 8 Nordeste 17 Nordeste 0 -- -- 45
2020-06-15 11:00:00 23.5 9 Nordeste 16 Nordeste 0 -- -- 46
2020-06-15 10:00:00 23 2 Noroeste 8 Nordeste 0 -- -- 43
2020-06-15 09:00:00 20.5 2 Sudoeste 5 Nordeste 0 -- -- 45
2020-06-15 08:00:00 17.5 5 Este 8 Este 0 -- -- 53
2020-06-15 07:00:00 17.8 3 Nordeste 11 Nordeste 0 -- -- 49
2020-06-15 06:00:00 17.7 2 Nordeste 11 Nordeste 0 -- -- 49
2020-06-15 05:00:00 17.5 6 Nordeste 10 Este 0 -- -- 49
2020-06-15 04:00:00 18 6 Nordeste 9 Este 0 -- -- 46
2020-06-15 03:00:00 18.2 5 Nordeste 10 Nordeste 0 -- -- 46
2020-06-15 02:00:00 19.4 2 Nordeste 11 Nordeste 0 -- -- 43
2020-06-15 01:00:00 18.9 2 Este 6 Nordeste 0 -- -- 54
2020-06-15 00:00:00 19.6 0 Calma 9 Nordeste 0 -- -- 53
2020-06-14 23:00:00 20.2 6 Nordeste 8 Nordeste 0 -- -- 55
2020-06-14 22:00:00 21.7 3 Nordeste 10 Sudoeste 0 -- -- 50
2020-06-14 21:00:00 23.6 8 Sudoeste 28 Sudoeste 0 -- -- 47
2020-06-14 20:00:00 25.4 15 Sudoeste 35 Sudoeste 0 -- -- 42
2020-06-14 19:00:00 27 16 Sudoeste 40 Sudoeste 0 -- -- 38
2020-06-14 18:00:00 28.2 14 Sudoeste 36 Sudoeste 0 -- -- 35
2020-06-14 17:00:00 29.9 16 Sudoeste 33 Sudoeste 0 -- -- 31
2020-06-14 16:00:00 30 13 Sudoeste 29 Sudoeste 0 -- -- 29
2020-06-14 15:00:00 29.2 14 Sudoeste 30 Sur 0 -- -- 27
2020-06-14 14:00:00 27.9 14 Sudoeste 26 Sudoeste 0 -- -- 29
2020-06-14 13:00:00 -- -- -- -- -- -- -- -- --
2020-06-14 12:00:00 -- -- -- -- -- -- -- -- --
2020-06-14 11:00:00 -- -- -- -- -- -- -- -- --
2020-06-14 10:00:00 -- -- -- -- -- -- -- -- --
2020-06-14 09:00:00 20 5 Nordeste 8 Nordeste 0 -- -- 50
2020-06-14 08:00:00 16.8 3 Este 6 Nordeste 0 -- -- 61
2020-06-14 07:00:00 17.1 4 Nordeste 6 Este 0 -- -- 55
2020-06-14 06:00:00 17 2 Nordeste 6 Este 0 -- -- 55
2020-06-14 05:00:00 17.6 0 Calma 10 Este 0 -- -- 56
2020-06-14 04:00:00 18.1 5 Nordeste 7 Nordeste 0 -- -- 54
2020-06-14 03:00:00 17.8 2 Este 8 Nordeste 0 -- -- 56
2020-06-14 02:00:00 18.6 3 Sudeste 5 Sudoeste 0 -- -- 54
2020-06-14 01:00:00 19.5 6 Nordeste 13 Norte 0 -- -- 51
2020-06-14 00:00:00 18.5 2 Nordeste 5 Este 0 -- -- 55
2020-06-13 23:00:00 18.6 0 Calma 9 Nordeste 0 -- -- 58
2020-06-13 22:00:00 19.4 3 Nordeste 11 Este 0 -- -- 60
2020-06-13 21:00:00 20.8 5 Este 12 Nordeste 0 -- -- 59
2020-06-13 20:00:00 22 5 Nordeste 13 Nordeste 0 -- -- 50
2020-06-13 19:00:00 22.6 5 Sudeste 17 Sur 0 -- -- 48
2020-06-13 18:00:00 23.7 6 Sur 22 Sudoeste 0 -- -- 43
2020-06-13 17:00:00 24.1 10 Sudoeste 24 Sudoeste 0 -- -- 40
2020-06-13 16:00:00 24.5 12 Sudoeste 27 Sudoeste 0 -- -- 42
2020-06-13 15:00:00 23.6 10 Sudoeste 21 Sudoeste 0 -- -- 41
2020-06-13 14:00:00 22.7 6 Sur 27 Sudoeste 0 -- -- 41
2020-06-13 13:00:00 22.5 9 Sudoeste 22 Sur 0 -- -- 45
2020-06-13 12:00:00 21.7 6 Sur 18 Sudoeste 0 -- -- 43
2020-06-13 11:00:00 20.6 4 Sur 12 Sudoeste 0 -- -- 42
2020-06-13 10:00:00 18.8 3 Sur 13 Este 0 -- -- 50
2020-06-13 09:00:00 16.4 7 Sudoeste 15 Noroeste 0 -- -- 51
2020-06-13 08:00:00 13.4 3 Sur 22 Sudoeste 0 -- -- 68
2020-06-13 07:00:00 12.9 9 Sudoeste 14 Sudoeste 0 -- -- 74
2020-06-13 06:00:00 13.1 0 Calma 5 Nordeste 0 -- -- 73
2020-06-13 05:00:00 13.9 3 Sudoeste 18 Sudoeste 0 -- -- 70
2020-06-13 04:00:00 14.7 7 Sudoeste 20 Sudoeste 0 -- -- 66
2020-06-13 03:00:00 15.5 5 Sudoeste 29 Sudoeste 0 -- -- 64
2020-06-13 02:00:00 16.1 13 Sudoeste 36 Oeste 0 -- -- 62
2020-06-13 01:00:00 15.9 13 Sudoeste 27 Sudoeste 0 -- -- 61
2020-06-13 00:00:00 16.1 15 Sudoeste 36 Sudoeste 0 -- -- 63
2020-06-12 23:00:00 16.3 14 Sudoeste 33 Sudoeste 0 -- -- 63
2020-06-12 22:00:00 17.2 14 Sudoeste 28 Oeste 0 -- -- 56
2020-06-12 21:00:00 18.6 15 Sudoeste 38 Sudoeste 0 -- -- 54
2020-06-12 20:00:00 20.7 18 Sudoeste 45 Sudoeste 0 -- -- 47
2020-06-12 19:00:00 21.6 20 Sudoeste 42 Sudoeste 0 -- -- 45
2020-06-12 18:00:00 22.9 18 Sudoeste 45 Oeste 0 -- -- 45
2020-06-12 17:00:00 23.9 17 Sudoeste 45 Sudoeste 0 -- -- 46
2020-06-12 16:00:00 24.5 19 Sudoeste 54 Sudoeste 0 -- -- 45
2020-06-12 15:00:00 24.1 15 Sudoeste 42 Sudoeste 0 -- -- 47
2020-06-12 14:00:00 23 16 Sudoeste 46 Sudoeste 0 -- -- 48
2020-06-12 13:00:00 20 14 Sudoeste 42 Sudoeste 0 -- -- 55
2020-06-12 12:00:00 18.9 13 Sudoeste 36 Sudoeste 0 -- -- 60
2020-06-12 11:00:00 17.8 12 Sudoeste 35 Noroeste 0 -- -- 61
2020-06-12 10:00:00 16.9 9 Oeste 36 Sudoeste 0 -- -- 64
2020-06-12 09:00:00 16.5 12 Sudoeste 30 Sudoeste 0 -- -- 69
2020-06-12 08:00:00 16.1 9 Oeste 28 Oeste 0 -- -- 72
2020-06-12 07:00:00 15.7 9 Sudoeste 17 Sudoeste 0 -- -- 86
2020-06-12 06:00:00 16 4 Sudoeste 20 Sudoeste 0 -- -- 84
2020-06-12 05:00:00 16.3 8 Sudoeste 24 Sudoeste 0 -- -- 76
2020-06-12 04:00:00 16 11 Sudoeste 22 Sudoeste 0 -- -- 82
2020-06-12 03:00:00 16.2 11 Sudoeste 28 Sudoeste 0 -- -- 86
2020-06-12 02:00:00 16.5 14 Sudoeste 26 Sudoeste 0 -- -- 78
2020-06-12 01:00:00 16.2 9 Sudoeste 31 Sudoeste 0 -- -- 86
2020-06-12 00:00:00 17.5 22 Sudoeste 37 Sudoeste 0 -- -- 74
2020-06-11 23:00:00 18.1 15 Sudoeste 35 Sudoeste 0 -- -- 67
2020-06-11 22:00:00 18.3 6 Sudoeste 32 Sudoeste 0 -- -- 62
2020-06-11 21:00:00 19.3 11 Sudoeste 35 Sudoeste 0 -- -- 56
2020-06-11 20:00:00 21 15 Sudoeste 41 Sudoeste 0 -- -- 47
2020-06-11 19:00:00 21.5 24 Sudoeste 50 Sudoeste 0 -- -- 48
2020-06-11 18:00:00 23.1 27 Sudoeste 45 Sudoeste 0 -- -- 46
2020-06-11 17:00:00 25.6 26 Sudoeste 49 Sudoeste 0 -- -- 41
2020-06-11 16:00:00 26.2 18 Sudoeste 42 Sudoeste 0 -- -- 41
2020-06-11 15:00:00 25.1 19 Sudoeste 33 Sudoeste 0 -- -- 44
2020-06-11 14:00:00 23.4 22 Sudoeste 38 Sudoeste 0 -- -- 48
2020-06-11 13:00:00 23.4 16 Sudoeste 34 Sudoeste 0 -- -- 44
2020-06-11 12:00:00 21.7 19 Sudoeste 44 Oeste 0 -- -- 47
2020-06-11 11:00:00 20.4 24 Sudoeste 45 Sudoeste 0 -- -- 48
2020-06-11 10:00:00 19.6 15 Sudoeste 30 Sudoeste 0 -- -- 45
2020-06-11 09:00:00 17.6 2 Sur 8 Sur 0 -- -- 53
2020-06-11 08:00:00 15.1 0 Calma 6 Nordeste 0 -- -- 53
2020-06-11 07:00:00 14.5 4 Nordeste 6 Nordeste 0 -- -- 52
2020-06-11 06:00:00 15.3 3 Este 6 Este 0 -- -- 49
2020-06-11 05:00:00 15.6 2 Sudeste 9 Sur 0 -- -- 51
2020-06-11 04:00:00 16.2 3 Sur 8 Sur 0 -- -- 52
2020-06-11 03:00:00 16.5 0 Calma 6 Sudeste 0 -- -- 53
2020-06-11 02:00:00 17.5 3 Nordeste 9 Este 0 -- -- 52
2020-06-11 01:00:00 17.7 2 Este 5 Sudoeste 0 -- -- 57
2020-06-11 00:00:00 18.5 0 Calma 7 Sur 0 -- -- 57
2020-06-10 23:00:00 20.1 4 Sur 8 Sudeste 0 -- -- 57
2020-06-10 22:00:00 21.4 3 Sudeste 19 Sudoeste 0 -- -- 53
2020-06-10 21:00:00 22.6 10 Sudoeste 19 Oeste 0 -- -- 54
2020-06-10 20:00:00 24.5 6 Nordeste 16 Nordeste 0 -- -- 44
2020-06-10 19:00:00 25.5 8 Sudoeste 21 Oeste 0 -- -- 43
2020-06-10 18:00:00 25.7 13 Sudoeste 27 Sudoeste 0 -- -- 42
2020-06-10 17:00:00 26.9 11 Sudoeste 24 Sudoeste 0 -- -- 41
2020-06-10 16:00:00 26.3 9 Sudoeste 20 Sudoeste 0 -- -- 46
2020-06-10 15:00:00 26.1 9 Sudoeste 21 Sudoeste 0 -- -- 38
2020-06-10 14:00:00 25 10 Sudoeste 19 Sudoeste 0 -- -- 44
2020-06-10 13:00:00 25.2 10 Sudoeste 19 Sudoeste 0 -- -- 45
2020-06-10 12:00:00 24 7 Sudoeste 16 Sur 0 -- -- 52
2020-06-10 11:00:00 23.8 2 Norte 12 Sudoeste 0 -- -- 51
2020-06-10 10:00:00 22.2 4 Sudoeste 6 Sudoeste 0 -- -- 51
2020-06-10 09:00:00 19.8 0 Calma 3 Sudoeste 0 -- -- 57
2020-06-10 08:00:00 17.2 0 Calma 3 Sudeste 0 -- -- 65
2020-06-10 07:00:00 16.4 0 Calma 2 Este 0 -- -- 62
2020-06-10 06:00:00 17.8 0 Calma 10 Este 0 -- -- 57
2020-06-10 05:00:00 18.3 4 Este 8 Este 0 -- -- 57
2020-06-10 04:00:00 18.3 4 Nordeste 6 Nordeste 0 -- -- 55
2020-06-10 03:00:00 18.4 0 Calma 5 Sur 0 -- -- 48
2020-06-10 02:00:00 17.8 2 Sur 5 Sudoeste 0 -- -- 58
2020-06-10 01:00:00 18 0 Calma 5 Sur 0 -- -- 63
2020-06-10 00:00:00 18.7 0 Calma 6 Sur 0 -- -- 63